KDTL/DTL METAR and TAF weather

Enter ICAO airport designator
Station Type Date Time Source
KDTL METAR 2022/12/08 11:55 UTC NOAA

KDTL 081155Z AUTO 15007KT 10SM CLR M16/M18 A3025 RMK AO2


Station Type Date Time Source
KDTL Decoded METAR 2022/12/08 11:55 UTC NOAA

Detroit Lakes, Detroit Lakes Airport-Wething Field, MN, United States (KDTL) 46-50N 095-53W
Dec 08, 2022 - 06:55 AM EST / 2022.12.08 1155 UTC
Wind: from the SSE (150 degrees) at 8 MPH (7 KT):0
Visibility: 10 mile(s):0
Sky conditions: clear
Temperature: 3 F (-16 C)
Windchill: -11 F (-24 C):2
Dew Point: 0 F (-18 C)
Relative Humidity: 84%
Pressure (altimeter): 30.25 in. Hg (1024 hPa)
ob: KDTL 081155Z AUTO 15007KT 10SM CLR M16/M18 A3025 RMK AO2
cycle: 12

Station Type Date Time Source
KDTL TAF UTC NOAA

Error!

Example: see airport list